Capitol Logistics 371


KMIA
Miami International Airport
Miami, Florida, US
KCLT
Charlotte/Douglas International Airport
Charlotte, North Carolina, US

Route Details

Aircraft Information
Primary: Boeing 767-300BDSF
Backup: Not Available
Route Data
Distance: 567nm
Sched. Duration: 1h 55m
Avg. Duration: 1h 60m (+5m)
Times Flown: 5
Recm'd Route: HEDLY2 HEDLY STYMY ZERBO Q87 VIYAP CHECR STOCR3
Planned Altitude: 35,000ft
Origin Wx: KMIA 160753Z 27010KT 10SM FEW018 SCT100 BKN160 OVC200 21/17 A2990 RMK AO2 SLP125 T02060172
Dest. Wx: KCLT 160752Z 00000KT 1/4SM R18C/1200V1400FT FG OVC000 02/02 A2966 RMK AO2 TWR VIS 1/4 SLP044 FG OVC000 T00220022
Notes:

Financial History
Total Freight: 430,689lbs
Average Load: 86,138lbs/flt
Fuel Used: 93,379lbs
Avg. Fuel Used: 18,676lbs/flt
Fuel Expense: $114,856
Avg. Fuel Expense: $22,971
Avg. Fuel Cost: $1.23/lbs
Total Gross Income: $590,763
Pilot Pay: $965
Total Expenses: $64,062
Total Revenue: $410,347
Average Revenue: $118,152.64